Time;durP1;ratioP1;P1;durP2;ratioP2;P2;SDS_P1;SDS_P2;PMS_P1;PMS_P2;Temp;Humidity;BMP_temperature;BMP_pressure;BME280_temperature;BME280_humidity;BME280_pressure;Samples;Min_cycle;Max_cycle;Signal;HPM_P1;HPM_P2
2022/01/16 00:00:26;;;;;;;61.40;27.07;;;;;;;-0.24;93.17;101627.26;1614358;88;26565;-76
2022/01/16 00:05:22;;;;;;;64.42;26.40;;;;;;;-0.23;93.20;101614.45;1614682;88;26594;-76
2022/01/16 00:07:48;;;;;;;68.25;28.52;;;;;;;-0.23;93.14;101615.77;1613455;88;25783;-77
2022/01/16 00:10:19;;;;;;;65.72;30.72;;;;;;;-0.25;93.04;101613.70;1609913;88;28318;-77
2022/01/16 00:12:49;;;;;;;70.08;27.77;;;;;;;-0.28;93.05;101612.09;1613671;87;25946;-76
2022/01/16 00:15:17;;;;;;;69.75;26.37;;;;;;;-0.32;92.87;101604.51;1587410;88;25815;-76
2022/01/16 00:18:07;;;;;;;62.03;27.20;;;;;;;-0.38;92.94;101601.76;1614560;88;25792;-76
2022/01/16 00:20:25;;;;;;;58.38;26.15;;;;;;;-0.36;92.93;101601.66;1612538;88;26068;-76
2022/01/16 00:22:51;;;;;;;53.38;25.65;;;;;;;-0.36;92.91;101612.19;1612675;88;27463;-76
2022/01/16 00:25:18;;;;;;;58.80;23.92;;;;;;;-0.34;92.92;101604.58;1632697;87;26664;-76
2022/01/16 00:27:45;;;;;;;62.88;27.22;;;;;;;-0.32;92.92;101588.71;1632465;87;25860;-77
2022/01/16 00:30:12;;;;;;;61.23;27.07;;;;;;;-0.32;92.83;101589.53;1630448;86;26003;-77
2022/01/16 00:32:38;;;;;;;65.78;27.42;;;;;;;-0.30;92.82;101589.46;1632582;87;25788;-76
2022/01/16 00:35:06;;;;;;;67.90;29.57;;;;;;;-0.29;92.79;101600.35;1631788;87;28365;-77
2022/01/16 00:37:32;;;;;;;53.35;27.35;;;;;;;-0.29;92.80;101602.98;1630678;86;25961;-76
2022/01/16 00:39:58;;;;;;;57.03;27.15;;;;;;;-0.33;92.66;101595.75;1632578;86;25878;-77
2022/01/16 00:42:25;;;;;;;58.00;28.77;;;;;;;-0.36;92.63;101614.35;1631509;87;25858;-76
2022/01/16 00:44:51;;;;;;;52.30;25.92;;;;;;;-0.39;92.56;101620.28;1630977;86;25767;-76
2022/01/16 00:47:17;;;;;;;53.55;27.05;;;;;;;-0.40;92.59;101604.95;1633210;87;27537;-76
2022/01/16 00:49:44;;;;;;;57.45;26.87;;;;;;;-0.40;92.55;101587.84;1631305;87;25840;-77
2022/01/16 00:52:10;;;;;;;50.08;25.15;;;;;;;-0.40;92.53;101585.67;1630654;86;25762;-76
2022/01/16 00:54:37;;;;;;;55.00;25.23;;;;;;;-0.42;92.27;101613.41;1615744;88;25810;-77
2022/01/16 00:57:05;;;;;;;57.10;25.60;;;;;;;-0.44;92.07;101615.75;1614045;88;26356;-77
2022/01/16 00:59:31;;;;;;;50.85;24.60;;;;;;;-0.49;92.06;101617.84;1613678;88;27481;-77
2022/01/16 01:01:59;;;;;;;61.05;26.25;;;;;;;-0.53;92.08;101631.62;1615750;88;26112;-77
2022/01/16 01:04:25;;;;;;;51.60;24.10;;;;;;;-0.54;92.21;101632.58;1613927;88;25824;-76
2022/01/16 01:06:51;;;;;;;53.73;25.15;;;;;;;-0.51;92.25;101644.71;1613541;88;26549;-76
2022/01/16 01:09:18;;;;;;;58.28;25.75;;;;;;;-0.51;92.17;101638.95;1615891;88;25982;-76
2022/01/16 01:11:48;;;;;;;65.70;25.82;;;;;;;-0.49;92.17;101620.47;1613662;88;27504;-77
2022/01/16 01:14:25;;;;;;;57.00;24.90;;;;;;;-0.49;92.02;101593.66;1614885;87;25869;-76
2022/01/16 01:16:55;;;;;;;61.85;28.07;;;;;;;-0.50;92.10;101589.34;1628915;87;25950;-77
2022/01/16 01:19:28;;;;;;;62.13;26.97;;;;;;;-0.51;92.01;101619.22;1630448;87;26549;-76
2022/01/16 01:21:54;;;;;;;57.10;25.92;;;;;;;-0.56;91.89;101610.77;1630511;87;25885;-77
2022/01/16 01:24:21;;;;;;;56.85;25.92;;;;;;;-0.55;92.07;101605.02;1630899;86;27723;-77
2022/01/16 01:27:06;;;;;;;52.55;23.22;;;;;;;-0.60;91.91;101618.47;1632474;87;25927;-77
2022/01/16 01:29:19;;;;;;;56.75;25.92;;;;;;;-0.63;91.80;101608.58;1625123;87;25588;-76
2022/01/16 01:31:45;;;;;;;65.10;29.75;;;;;;;-0.69;91.84;101568.17;1627449;87;26281;-77
2022/01/16 01:34:11;;;;;;;49.40;21.70;;;;;;;-0.72;91.77;101582.34;1631248;86;26560;-76
2022/01/16 01:36:38;;;;;;;52.70;24.63;;;;;;;-0.74;91.80;101583.38;1615661;88;27502;-76
2022/01/16 01:39:04;;;;;;;58.05;26.35;;;;;;;-0.81;91.70;101578.94;1609461;88;25810;-76
2022/01/16 01:41:30;;;;;;;57.13;26.82;;;;;;;-0.85;91.78;101600.64;1614615;87;25842;-76
2022/01/16 01:52:11;;;;;;;63.83;26.73;;;;;;;-0.85;92.07;101469.14;1611681;88;25910;-76
2022/01/16 01:54:38;;;;;;;62.67;28.27;;;;;;;-0.82;92.15;101447.92;1613915;87;25866;-77
2022/01/16 01:57:04;;;;;;;54.00;23.30;;;;;;;-0.77;92.12;101457.31;1615777;88;26558;-76
2022/01/16 01:59:30;;;;;;;59.95;26.70;;;;;;;-0.80;91.89;101453.94;1614066;88;25806;-76
2022/01/16 02:01:57;;;;;;;63.65;27.37;;;;;;;-0.82;91.79;101429.98;1613334;87;27469;-77
2022/01/16 02:04:23;;;;;;;65.57;29.75;;;;;;;-0.85;91.65;101458.61;1616037;88;25855;-76
2022/01/16 02:06:49;;;;;;;68.07;27.58;;;;;;;-0.87;91.66;101492.52;1613623;88;25803;-75
2022/01/16 02:09:18;;;;;;;69.87;29.50;;;;;;;-0.89;91.77;101501.83;1614143;88;25829;-76
2022/01/16 02:11:46;;;;;;;73.25;31.62;;;;;;;-0.90;91.83;101525.09;1615644;88;25956;-76
2022/01/16 02:28:24;;;;;;;75.35;34.80;;;;;;;-0.83;91.78;101483.50;1613065;88;27589;-76
2022/01/16 02:34:30;;;;;;;59.15;27.48;;;;;;;-0.80;91.81;101509.17;1615660;88;25829;-77
2022/01/16 02:35:55;;;;;;;64.42;29.10;;;;;;;-0.80;91.76;101503.91;1612273;88;26492;-76
2022/01/16 02:38:21;;;;;;;66.07;28.73;;;;;;;-0.81;91.75;101511.41;1614914;88;25798;-76
2022/01/16 02:40:51;;;;;;;73.57;30.72;;;;;;;-0.79;91.74;101500.32;1613063;87;28327;-76
2022/01/16 02:43:28;;;;;;;63.30;30.52;;;;;;;-0.80;91.70;101510.95;1614561;87;26371;-76
2022/01/16 02:45:58;;;;;;;69.75;28.25;;;;;;;-0.81;91.63;101525.88;1615171;88;25875;-76
2022/01/16 02:48:16;;;;;;;72.08;28.77;;;;;;;-0.81;91.61;101524.56;1612892;88;26593;-77
2022/01/16 02:50:43;;;;;;;60.85;26.57;;;;;;;-0.82;91.46;101510.20;1613910;88;26453;-78
2022/01/16 02:53:09;;;;;;;63.83;27.90;;;;;;;-0.82;91.41;101504.47;1615629;88;27543;-76
2022/01/16 02:55:41;;;;;;;71.65;30.45;;;;;;;-0.83;91.24;101514.60;1613422;88;25932;-77
2022/01/16 02:58:06;;;;;;;61.28;26.55;;;;;;;-0.86;91.29;101514.80;1613270;88;25900;-76
2022/01/16 03:00:32;;;;;;;72.25;30.32;;;;;;;-0.86;91.27;101515.27;1615804;88;26020;-76
2022/01/16 03:02:59;;;;;;;70.97;31.15;;;;;;;-0.89;91.16;101511.48;1614157;88;25947;-77
2022/01/16 03:05:25;;;;;;;75.57;32.05;;;;;;;-0.91;91.29;101518.63;1613657;88;27603;-77
2022/01/16 03:07:51;;;;;;;67.80;29.85;;;;;;;-0.90;91.43;101519.84;1612771;88;25916;-77
2022/01/16 03:12:53;;;;;;;77.82;30.88;;;;;;;-0.88;91.41;101515.83;1615633;88;26583;-77
2022/01/16 03:15:20;;;;;;;72.15;30.62;;;;;;;-0.89;91.26;101524.17;1611211;88;26255;-77
2022/01/16 03:21:54;;;;;;;68.80;30.35;;;;;;;-0.90;90.97;101529.53;1614264;87;27481;-76
2022/01/16 03:23:04;;;;;;;61.40;29.52;;;;;;;-0.97;90.65;101514.59;1611953;88;26679;-77
2022/01/16 03:25:30;;;;;;;71.67;32.30;;;;;;;-0.95;90.67;101509.23;1612864;88;25946;-77
2022/01/16 03:27:56;;;;;;;69.80;28.65;;;;;;;-0.97;90.50;101513.27;1609509;88;26563;-76
2022/01/16 03:30:23;;;;;;;70.40;30.75;;;;;;;-0.99;90.49;101507.72;1614627;88;27462;-77
2022/01/16 03:32:49;;;;;;;76.55;34.00;;;;;;;-1.00;90.35;101487.61;1615125;88;26849;-76
2022/01/16 03:35:15;;;;;;;78.35;32.33;;;;;;;-1.05;90.22;101479.17;1613167;88;26528;-77
2022/01/16 03:37:41;;;;;;;74.77;32.58;;;;;;;-1.08;90.14;101477.56;1614895;87;26019;-77
2022/01/16 03:40:11;;;;;;;82.75;31.90;;;;;;;-1.09;90.28;101471.09;1614864;88;25858;-76
2022/01/16 03:42:39;;;;;;;72.70;34.10;;;;;;;-1.08;90.30;101467.52;1612838;88;28300;-76
2022/01/16 03:45:06;;;;;;;84.60;34.60;;;;;;;-1.05;90.55;101462.08;1614696;88;26577;-77
2022/01/16 03:47:34;;;;;;;78.25;32.15;;;;;;;-1.03;90.50;101462.38;1615925;88;25873;-76
2022/01/16 03:50:01;;;;;;;74.17;33.50;;;;;;;-1.00;90.53;101458.23;1609876;88;26613;-76
2022/01/16 03:52:27;;;;;;;76.62;35.45;;;;;;;-1.00;90.41;101450.34;1613910;87;26300;-76
2022/01/16 03:54:53;;;;;;;78.62;35.75;;;;;;;-1.02;90.15;101451.36;1615561;88;27515;-78
2022/01/16 03:57:20;;;;;;;72.82;30.35;;;;;;;-1.03;90.19;101453.63;1609707;88;25874;-76
2022/01/16 03:59:46;;;;;;;75.35;31.82;;;;;;;-1.05;90.11;101456.33;1614642;88;25768;-76
2022/01/16 04:02:12;;;;;;;72.75;30.00;;;;;;;-1.04;90.05;101451.47;1633037;87;26011;-76
2022/01/16 04:04:39;;;;;;;66.72;31.50;;;;;;;-1.04;89.99;101458.04;1633226;87;26000;-77
2022/01/16 04:07:07;;;;;;;67.42;29.07;;;;;;;-1.03;90.03;101458.89;1613798;88;27562;-77
2022/01/16 04:09:34;;;;;;;75.70;33.98;;;;;;;-1.03;90.00;101455.80;1613200;87;26669;-77
2022/01/16 04:12:01;;;;;;;73.15;30.23;;;;;;;-1.02;90.06;101442.16;1615605;88;25906;-77
2022/01/16 04:17:19;;;;;;;75.30;30.37;;;;;;;-1.01;90.10;101435.52;1630432;87;26461;-77
2022/01/16 04:19:47;;;;;;;71.10;30.30;;;;;;;-0.97;90.20;101426.50;1628225;87;27474;-77
2022/01/16 04:22:14;;;;;;;75.52;32.75;;;;;;;-0.96;90.20;101420.28;1631259;87;26512;-77
2022/01/16 04:24:42;;;;;;;88.45;36.08;;;;;;;-0.92;90.26;101415.70;1633153;87;25804;-76
2022/01/16 04:27:11;;;;;;;80.03;33.15;;;;;;;-0.89;90.30;101416.81;1631453;87;25950;-76
2022/01/16 04:29:39;;;;;;;80.20;32.80;;;;;;;-0.87;90.17;101417.56;1630829;87;25843;-76
2022/01/16 04:32:06;;;;;;;67.25;28.83;;;;;;;-0.84;90.33;101416.08;1632834;87;27441;-76
2022/01/16 04:34:32;;;;;;;77.72;30.75;;;;;;;-0.81;90.21;101418.03;1614714;88;26547;-76
2022/01/16 04:36:58;;;;;;;83.15;34.35;;;;;;;-0.82;90.09;101420.31;1613237;87;25770;-76
2022/01/16 04:39:31;;;;;;;85.67;33.67;;;;;;;-0.80;90.05;101417.57;1627471;87;26500;-77
2022/01/16 04:44:38;;;;;;;74.77;31.30;;;;;;;-0.85;90.00;101408.64;1632158;87;27485;-76
2022/01/16 04:47:04;;;;;;;75.90;31.17;;;;;;;-0.85;90.15;101419.17;1630434;87;26299;-77
2022/01/16 04:49:30;;;;;;;74.15;28.45;;;;;;;-0.81;90.20;101420.66;1631969;86;26461;-77
2022/01/16 04:51:56;;;;;;;71.05;31.45;;;;;;;-0.77;90.29;101412.59;1632148;87;25994;-76
2022/01/16 04:54:24;;;;;;;80.35;33.10;;;;;;;-0.75;90.26;101406.77;1630343;87;25769;-77
2022/01/16 04:56:52;;;;;;;78.80;32.40;;;;;;;-0.73;90.26;101403.11;1632319;86;27477;-76
2022/01/16 04:59:18;;;;;;;75.08;31.15;;;;;;;-0.72;90.21;101398.67;1632771;87;25886;-76
2022/01/16 05:01:45;;;;;;;74.20;30.80;;;;;;;-0.70;90.33;101387.58;1630227;87;25908;-77
2022/01/16 05:04:12;;;;;;;72.22;30.62;;;;;;;-0.67;90.24;101387.41;1632250;86;25842;-76
2022/01/16 05:06:38;;;;;;;70.45;30.15;;;;;;;-0.67;90.27;101389.57;1615049;88;25951;-76
2022/01/16 05:09:05;;;;;;;60.98;26.93;;;;;;;-0.65;90.25;101380.25;1613198;88;27442;-77
2022/01/16 05:11:31;;;;;;;67.08;24.70;;;;;;;-0.61;90.19;101383.06;1615498;88;26288;-77
2022/01/16 05:16:42;;;;;;;66.05;25.37;;;;;;;-0.66;89.89;101362.30;1612537;88;25845;-76
2022/01/16 05:19:10;;;;;;;;;;;;;;;-0.66;89.99;101365.43;1616551;88;25777;-76
2022/01/16 05:21:38;;;;;;;64.15;23.38;;;;;;;-0.66;90.10;101362.80;1631581;87;27458;-77
2022/01/16 05:24:09;;;;;;;60.17;24.77;;;;;;;-0.68;90.19;101354.16;1630481;87;25967;-76
2022/01/16 05:26:35;;;;;;;56.28;25.85;;;;;;;-0.68;90.01;101353.67;1632069;87;25962;-76
2022/01/16 05:29:03;;;;;;;53.50;24.75;;;;;;;-0.67;90.00;101350.57;1632699;87;25829;-76
2022/01/16 05:31:29;;;;;;;62.27;25.75;;;;;;;-0.66;90.09;101347.83;1627006;87;26325;-76
2022/01/16 05:33:55;;;;;;;56.53;23.15;;;;;;;-0.63;90.05;101343.70;1632110;86;27625;-76
2022/01/16 05:36:22;;;;;;;61.18;24.07;;;;;;;-0.61;89.82;101342.28;1608593;88;25324;-76
2022/01/16 05:38:49;;;;;;;58.00;24.43;;;;;;;-0.62;89.86;101336.66;1613510;87;25842;-77
2022/01/16 05:41:18;;;;;;;53.83;22.55;;;;;;;-0.60;89.96;101333.47;1612862;87;26439;-76
2022/01/16 05:43:46;;;;;;;45.30;18.10;;;;;;;-0.59;89.87;101332.05;1613881;87;26630;-76
2022/01/16 05:46:14;;;;;;;58.83;23.55;;;;;;;-0.61;89.59;101334.39;1615311;88;27492;-77
2022/01/16 05:48:40;;;;;;;55.43;21.42;;;;;;;-0.64;89.67;101326.22;1614105;88;25828;-76
2022/01/16 05:51:08;;;;;;;58.73;23.55;;;;;;;-0.64;89.82;101327.53;1613637;88;25810;-77
2022/01/16 05:53:37;;;;;;;58.98;25.80;;;;;;;-0.63;89.83;101318.72;1615685;88;26522;-76
2022/01/16 05:56:05;;;;;;;60.83;22.25;;;;;;;-0.61;89.88;101310.25;1615889;88;25950;-76
2022/01/16 05:58:31;;;;;;;61.80;24.35;;;;;;;-0.59;89.84;101303.56;1612204;88;27500;-77
2022/01/16 06:00:58;;;;;;;53.78;23.55;;;;;;;-0.56;89.90;101296.80;1613054;88;25907;-77
2022/01/16 06:03:24;;;;;;;58.15;25.77;;;;;;;-0.56;89.78;101298.97;1614478;87;25843;-77
2022/01/16 06:05:50;;;;;;;56.95;23.92;;;;;;;-0.56;89.82;101292.39;1618466;88;26077;-77
2022/01/16 06:08:17;;;;;;;54.33;23.50;;;;;;;-0.53;89.80;101288.23;1625595;87;25859;-76
2022/01/16 06:10:43;;;;;;;52.05;22.20;;;;;;;-0.52;89.58;101281.19;1612879;88;27478;-77
2022/01/16 06:13:09;;;;;;;50.70;22.07;;;;;;;-0.52;89.62;101268.88;1612314;88;26691;-77
2022/01/16 06:15:36;;;;;;;51.50;23.20;;;;;;;-0.52;89.58;101258.82;1613124;88;25832;-76
2022/01/16 06:18:03;;;;;;;47.50;21.12;;;;;;;-0.50;89.72;101247.25;1616195;88;25856;-77
2022/01/16 06:20:29;;;;;;;51.02;23.50;;;;;;;-0.49;89.68;101237.08;1614585;88;25965;-77
2022/01/16 06:22:55;;;;;;;56.45;21.93;;;;;;;-0.46;89.68;101242.63;1607734;88;27472;-77
2022/01/16 06:25:24;;;;;;;58.40;25.27;;;;;;;-0.42;89.78;101248.05;1611060;88;26010;-77
2022/01/16 06:27:50;;;;;;;64.37;26.30;;;;;;;-0.40;89.86;101256.69;1613905;87;25924;-76
2022/01/16 06:30:17;;;;;;;62.90;26.48;;;;;;;-0.37;89.87;101257.35;1615901;88;26533;-76
2022/01/16 06:32:44;;;;;;;58.30;25.43;;;;;;;-0.35;89.89;101240.13;1613815;88;25951;-76
2022/01/16 06:35:14;;;;;;;58.85;29.00;;;;;;;-0.33;89.80;101250.09;1613934;87;27507;-76
2022/01/16 06:37:40;;;;;;;62.10;26.67;;;;;;;-0.32;89.72;101252.61;1616150;88;25963;-76
2022/01/16 06:40:09;;;;;;;69.67;28.98;;;;;;;-0.31;89.77;101254.31;1614141;88;25803;-77
2022/01/16 06:42:37;;;;;;;60.12;26.48;;;;;;;-0.28;89.72;101254.09;1613141;88;26570;-77
2022/01/16 06:45:08;;;;;;;66.33;26.07;;;;;;;-0.27;89.53;101257.56;1615634;88;25997;-76
2022/01/16 06:47:34;;;;;;;57.50;25.43;;;;;;;-0.27;89.57;101256.25;1615156;88;27472;-76
2022/01/16 06:50:01;;;;;;;60.55;27.13;;;;;;;-0.24;89.51;101252.97;1618230;88;25927;-76
2022/01/16 06:52:27;;;;;;;62.70;29.98;;;;;;;-0.22;89.44;101251.53;1613442;88;26021;-77
2022/01/16 06:54:53;;;;;;;72.90;29.90;;;;;;;-0.21;89.33;101249.26;1614109;88;25785;-76
2022/01/16 06:57:20;;;;;;;61.18;26.45;;;;;;;-0.20;89.39;101253.13;1616017;88;25872;-76
2022/01/16 06:59:47;;;;;;;64.05;27.85;;;;;;;-0.17;89.31;101253.41;1613998;88;27566;-76
2022/01/16 07:02:16;;;;;;;63.00;26.48;;;;;;;-0.17;89.30;101257.35;1613352;88;25926;-76
2022/01/16 07:04:45;;;;;;;68.07;28.20;;;;;;;-0.14;89.35;101265.03;1615760;88;25941;-76
2022/01/16 07:07:11;;;;;;;59.42;24.87;;;;;;;-0.14;89.23;101261.92;1611799;88;25936;-76
2022/01/16 07:09:39;;;;;;;64.85;26.48;;;;;;;-0.12;89.29;101259.19;1615637;88;25866;-75
2022/01/16 07:12:07;;;;;;;60.30;27.07;;;;;;;-0.10;89.18;101263.87;1612907;88;27738;-76
2022/01/16 07:14:34;;;;;;;60.23;25.80;;;;;;;-0.11;89.25;101264.34;1614159;87;25801;-76
2022/01/16 07:17:00;;;;;;;54.73;22.67;;;;;;;-0.09;89.25;101267.73;1615603;88;25940;-76
2022/01/16 07:19:26;;;;;;;57.17;25.92;;;;;;;-0.07;89.26;101265.84;1613353;88;25779;-76
2022/01/16 07:21:54;;;;;;;54.93;24.95;;;;;;;-0.03;89.32;101269.95;1613812;87;25979;-76
2022/01/16 07:24:21;;;;;;;51.92;24.05;;;;;;;0.00;89.30;101268.91;1613785;88;27543;-78
2022/01/16 07:26:47;;;;;;;51.15;23.92;;;;;;;0.02;89.21;101269.65;1613359;88;25778;-75
2022/01/16 07:29:14;;;;;;;65.65;25.90;;;;;;;0.03;89.17;101263.42;1614202;87;25759;-76
2022/01/16 07:31:40;;;;;;;56.35;24.40;;;;;;;0.09;89.39;101254.25;1615403;88;26573;-76
2022/01/16 07:34:07;;;;;;;59.05;22.85;;;;;;;0.13;89.26;101247.85;1609706;88;25789;-77
2022/01/16 07:36:34;;;;;;;58.25;25.82;;;;;;;0.16;89.14;101247.63;1614130;88;28203;-77
2022/01/16 07:39:01;;;;;;;54.38;25.05;;;;;;;0.17;89.22;101244.88;1615587;88;26133;-77
2022/01/16 07:41:27;;;;;;;51.35;24.02;;;;;;;0.22;89.33;101247.20;1609776;88;25568;-76
2022/01/16 07:43:53;;;;;;;60.92;25.50;;;;;;;0.24;89.34;101241.34;1613019;88;25949;-74
2022/01/16 07:46:19;;;;;;;63.30;25.35;;;;;;;0.28;89.25;101241.53;1619019;88;25942;-75
2022/01/16 07:48:46;;;;;;;60.10;26.85;;;;;;;0.29;89.16;101235.30;1623199;87;27477;-76
2022/01/16 07:51:12;;;;;;;61.35;23.83;;;;;;;0.29;89.11;101244.05;1613020;88;25974;-76
2022/01/16 07:53:40;;;;;;;60.45;24.37;;;;;;;0.29;89.04;101245.84;1605936;88;25800;-76
2022/01/16 07:56:06;;;;;;;55.85;24.67;;;;;;;0.29;89.02;101240.10;1626812;87;26449;-75
2022/01/16 07:58:32;;;;;;;49.58;22.32;;;;;;;0.29;89.00;101238.78;1628235;86;25608;-75
2022/01/16 08:00:58;;;;;;;52.62;23.38;;;;;;;0.31;89.01;101246.58;1630126;87;28241;-76
2022/01/16 08:03:25;;;;;;;53.48;24.20;;;;;;;0.31;89.10;101242.63;1632644;87;25816;-77
2022/01/16 08:05:51;;;;;;;55.15;22.95;;;;;;;0.34;89.16;101236.66;1616122;88;25802;-78
2022/01/16 08:08:17;;;;;;;55.90;23.35;;;;;;;0.34;88.94;101222.16;1611883;88;26405;-76
2022/01/16 08:10:43;;;;;;;55.83;23.70;;;;;;;0.35;89.01;101216.42;1619260;88;25774;-78
2022/01/16 08:13:10;;;;;;;55.03;21.42;;;;;;;0.38;89.16;101218.39;1622032;88;28262;-79
2022/01/16 08:15:36;;;;;;;50.63;22.40;;;;;;;0.40;89.07;101227.50;1613989;88;25897;-78
2022/01/16 08:18:02;;;;;;;52.50;23.40;;;;;;;0.39;88.98;101218.74;1609898;88;25364;-80
2022/01/16 08:20:29;;;;;;;56.02;24.95;;;;;;;0.40;89.05;101222.23;1613732;88;26617;-78
2022/01/16 08:22:55;;;;;;;51.90;22.80;;;;;;;0.42;89.11;101223.81;1608429;88;25843;-78
2022/01/16 08:25:24;;;;;;;53.08;21.80;;;;;;;0.38;88.64;101216.23;1615137;88;27501;-75
2022/01/16 08:27:50;;;;;;;49.33;21.68;;;;;;;0.37;88.89;101216.69;1611582;87;25369;-76
2022/01/16 08:30:16;;;;;;;46.20;21.50;;;;;;;0.38;88.91;101214.91;1615175;88;25839;-75
2022/01/16 08:32:43;;;;;;;46.63;21.37;;;;;;;0.41;88.97;101209.41;1614836;88;26000;-76
2022/01/16 08:35:12;;;;;;;53.50;21.80;;;;;;;0.44;89.00;101196.88;1612716;87;25913;-76
2022/01/16 08:37:38;;;;;;;46.28;21.70;;;;;;;0.46;89.04;101188.39;1615162;87;28360;-76
2022/01/16 08:40:07;;;;;;;46.18;19.37;;;;;;;0.50;89.08;101184.58;1615300;88;25835;-76
2022/01/16 08:42:35;;;;;;;47.95;20.48;;;;;;;0.51;88.76;101195.47;1610346;88;25857;-78
2022/01/16 08:45:02;;;;;;;51.18;21.80;;;;;;;0.51;88.65;101195.47;1609200;88;25875;-78
2022/01/16 08:47:30;;;;;;;49.25;20.45;;;;;;;0.51;88.66;101194.66;1604274;88;26548;-77
2022/01/16 08:49:58;;;;;;;48.85;20.75;;;;;;;0.55;88.78;101193.02;1632998;87;27604;-78
2022/01/16 08:52:27;;;;;;;43.73;18.55;;;;;;;0.54;88.00;101179.45;1633386;86;26176;-75
2022/01/16 08:54:54;;;;;;;50.25;23.85;;;;;;;0.54;88.17;101179.45;1623475;87;26880;-76
2022/01/16 08:57:20;;;;;;;48.13;22.27;;;;;;;0.56;88.34;101173.59;1632058;87;25857;-76
2022/01/16 08:59:46;;;;;;;52.73;22.77;;;;;;;0.59;88.35;101173.39;1625670;87;25749;-76
2022/01/16 09:02:12;;;;;;;41.05;23.30;;;;;;;0.64;88.33;101177.02;1629291;87;28240;-75
2022/01/16 09:04:38;;;;;;;46.77;19.65;;;;;;;0.69;88.17;101170.92;1631182;86;25891;-76
2022/01/16 09:07:05;;;;;;;40.80;18.67;;;;;;;0.70;87.92;101165.56;1611510;88;25943;-77
2022/01/16 09:09:31;;;;;;;48.80;19.77;;;;;;;0.71;87.83;101160.64;1618354;88;25882;-76
2022/01/16 09:11:59;;;;;;;39.38;17.35;;;;;;;0.72;87.71;101135.13;1610191;88;25962;-77
2022/01/16 09:14:26;;;;;;;35.00;17.75;;;;;;;0.74;87.65;101144.61;1613549;87;27483;-77
2022/01/16 09:16:52;;;;;;;45.00;20.17;;;;;;;0.74;87.43;101127.47;1611399;88;26074;-76
2022/01/16 09:19:19;;;;;;;41.50;20.50;;;;;;;0.75;87.46;101133.09;1609904;88;25785;-76
2022/01/16 09:21:45;;;;;;;52.08;21.62;;;;;;;0.79;87.45;101125.33;1614358;87;26028;-77
2022/01/16 09:24:11;;;;;;;60.05;27.73;;;;;;;0.82;87.37;101139.23;1613045;88;25754;-77
2022/01/16 09:26:37;;;;;;;46.85;27.22;;;;;;;0.84;87.34;101137.33;1613511;88;28105;-77
2022/01/16 09:29:04;;;;;;;46.42;23.40;;;;;;;0.86;87.28;101138.91;1612783;88;26515;-77
2022/01/16 09:31:30;;;;;;;45.78;21.60;;;;;;;0.87;87.17;101132.70;1614844;87;25888;-77
2022/01/16 09:33:58;;;;;;;45.30;19.50;;;;;;;0.90;87.33;101127.17;1615616;88;26589;-78
2022/01/16 09:36:24;;;;;;;34.08;19.23;;;;;;;0.93;87.26;101127.44;1612154;88;26801;-76
2022/01/16 09:38:51;;;;;;;36.90;18.60;;;;;;;0.94;87.06;101126.50;1615160;88;27486;-76
2022/01/16 09:41:17;;;;;;;48.60;21.57;;;;;;;0.94;87.08;101127.31;1613302;88;25869;-77
2022/01/16 09:43:43;;;;;;;44.95;19.45;;;;;;;0.99;87.21;101117.75;1615036;88;25925;-78
2022/01/16 09:46:10;;;;;;;42.55;21.05;;;;;;;1.02;87.35;101108.30;1615482;88;25822;-80
2022/01/16 09:48:36;;;;;;;39.73;20.00;;;;;;;1.04;87.02;101101.97;1612203;88;25834;-77
2022/01/16 09:51:02;;;;;;;44.40;22.32;;;;;;;1.08;87.21;101097.29;1612249;88;28264;-77
2022/01/16 09:53:29;;;;;;;48.90;20.15;;;;;;;1.10;87.07;101095.38;1608254;88;25950;-79
2022/01/16 09:55:55;;;;;;;42.93;18.12;;;;;;;1.09;86.83;101083.97;1616054;88;26187;-77
2022/01/16 09:58:22;;;;;;;39.38;20.40;;;;;;;1.09;86.82;101079.20;1612797;88;25897;-78
2022/01/16 10:00:51;;;;;;;38.25;17.65;;;;;;;1.11;87.18;101066.23;1615119;87;25897;-77
2022/01/16 10:03:42;;;;;;;39.48;17.50;;;;;;;1.15;86.93;101062.44;1615462;88;28984;-77
2022/01/16 10:06:22;;;;;;;37.88;17.35;;;;;;;1.16;86.82;101061.46;1611423;88;25905;-77
2022/01/16 10:08:51;;;;;;;35.68;16.75;;;;;;;1.17;86.73;101059.67;1612527;88;26027;-78
2022/01/16 10:11:30;;;;;;;46.50;16.48;;;;;;;1.17;86.85;101057.03;1614059;88;26229;-77
2022/01/16 10:14:11;;;;;;;37.73;17.80;;;;;;;1.18;86.70;101056.06;1606456;88;25909;-78
2022/01/16 10:16:35;;;;;;;38.28;17.07;;;;;;;1.17;86.57;101050.44;1607985;88;28474;-78
2022/01/16 10:19:03;;;;;;;47.90;20.68;;;;;;;1.17;86.78;101043.84;1611849;88;26365;-77
2022/01/16 10:21:40;;;;;;;44.10;20.25;;;;;;;1.19;86.69;101049.84;1617572;88;25840;-80
2022/01/16 10:24:28;;;;;;;42.78;19.70;;;;;;;1.21;86.99;101052.73;1609490;88;25984;-79
2022/01/16 10:27:14;;;;;;;43.98;19.75;;;;;;;1.28;87.24;101047.33;1612876;88;26013;-79
2022/01/16 10:29:51;;;;;;;51.58;20.82;;;;;;;1.32;87.02;101051.45;1614727;88;28267;-78
2022/01/16 10:32:25;;;;;;;37.45;17.10;;;;;;;1.34;86.82;101054.81;1613129;88;25979;-77
2022/01/16 10:35:18;;;;;;;55.33;23.85;;;;;;;1.37;86.72;101047.95;1610562;88;26329;-77
2022/01/16 10:37:52;;;;;;;93.05;42.53;;;;;;;1.38;86.80;101042.20;1615290;88;26817;-78
2022/01/16 10:40:22;;;;;;;52.53;22.48;;;;;;;1.42;86.97;101042.33;1612539;88;25848;-77
2022/01/16 10:42:57;;;;;;;50.98;21.45;;;;;;;1.43;86.37;101040.88;1611428;88;27503;-77
2022/01/16 10:45:30;;;;;;;49.98;21.62;;;;;;;1.40;86.47;101033.69;1607621;88;25367;-77
2022/01/16 10:48:00;;;;;;;39.45;21.00;;;;;;;1.41;86.57;101029.61;1603676;88;25775;-77
2022/01/16 10:50:38;;;;;;;35.83;18.77;;;;;;;1.41;86.65;101019.05;1628509;87;25838;-77
2022/01/16 10:53:08;;;;;;;45.20;22.30;;;;;;;1.42;86.53;101019.89;1630263;87;25843;-77
2022/01/16 10:55:47;;;;;;;52.30;25.70;;;;;;;1.43;86.62;101014.48;1625691;86;27465;-77
2022/01/16 10:58:38;;;;;;;56.70;23.95;;;;;;;1.46;86.82;101010.78;1623158;87;26521;-76
2022/01/16 11:01:14;;;;;;;44.38;19.65;;;;;;;1.50;86.89;101004.30;1630810;87;25929;-77
2022/01/16 11:03:47;;;;;;;47.75;20.17;;;;;;;1.53;86.73;100997.47;1614823;88;25946;-76
2022/01/16 11:06:16;;;;;;;41.58;19.87;;;;;;;1.52;86.61;100988.70;1606692;88;25859;-76
2022/01/16 11:08:57;;;;;;;39.90;19.75;;;;;;;1.53;86.54;100980.31;1613729;87;27457;-76
2022/01/16 11:11:28;;;;;;;50.73;20.20;;;;;;;1.53;86.57;100974.56;1630633;87;25874;-76
2022/01/16 11:13:56;;;;;;;58.25;25.65;;;;;;;1.55;86.68;100975.28;1631456;87;25902;-76
2022/01/16 11:16:24;;;;;;;63.20;29.80;;;;;;;1.58;86.96;100971.06;1615166;88;25854;-76
2022/01/16 11:18:51;;;;;;;62.25;26.60;;;;;;;1.64;87.16;100962.31;1613147;87;26050;-76
2022/01/16 11:21:43;;;;;;;51.92;23.62;;;;;;;1.69;86.95;100960.16;1614592;88;27535;-76
2022/01/16 11:26:23;;;;;;;52.03;24.43;;;;;;;1.72;87.08;100955.46;1611547;88;25856;-76
2022/01/16 11:28:53;;;;;;;59.73;23.32;;;;;;;1.74;87.01;100949.58;1629995;87;25792;-76
2022/01/16 11:31:19;;;;;;;49.18;22.70;;;;;;;1.78;87.03;100951.01;1630999;87;25874;-76
2022/01/16 11:33:46;;;;;;;48.92;22.98;;;;;;;1.82;87.01;100945.02;1630459;87;26930;-76
2022/01/16 11:36:28;;;;;;;59.50;23.18;;;;;;;1.84;86.79;100937.81;1632865;87;25923;-76
2022/01/16 11:39:02;;;;;;;48.40;21.68;;;;;;;1.82;86.75;100938.42;1629598;87;25867;-76
2022/01/16 11:41:34;;;;;;;47.65;23.90;;;;;;;1.83;86.85;100933.00;1627102;87;26590;-76
2022/01/16 11:44:05;;;;;;;46.48;20.52;;;;;;;1.88;86.99;100932.64;1630326;87;26518;-76
2022/01/16 11:46:35;;;;;;;51.92;23.35;;;;;;;1.87;86.92;100922.55;1599590;88;28068;-76
2022/01/16 11:49:06;;;;;;;57.00;24.35;;;;;;;1.88;86.91;100921.57;1603482;88;25819;-77
2022/01/16 11:51:49;;;;;;;57.70;24.32;;;;;;;1.89;86.90;100919.77;1610928;88;26634;-76
2022/01/16 11:54:30;;;;;;;53.60;24.43;;;;;;;1.88;86.89;100916.28;1609765;88;25959;-76
2022/01/16 11:57:08;;;;;;;55.15;25.05;;;;;;;1.87;86.93;100909.81;1612544;88;25955;-76
2022/01/16 11:59:39;;;;;;;54.38;22.25;;;;;;;1.88;86.89;100904.91;1610932;88;27471;-78